createdAt,value
2022-07-25T00:01:35.751Z,74.58
2022-07-25T00:04:02.477Z,73.96
2022-07-25T00:06:29.298Z,74.64
2022-07-25T00:08:55.768Z,74.30
2022-07-25T00:11:22.247Z,74.17
2022-07-25T00:13:48.743Z,74.26
2022-07-25T00:16:15.301Z,74.32
2022-07-25T00:18:42.259Z,74.52
2022-07-25T00:21:08.712Z,74.46
2022-07-25T00:23:35.124Z,74.52
2022-07-25T00:26:01.855Z,73.82
2022-07-25T00:28:28.264Z,73.98
2022-07-25T00:30:54.996Z,75.26
2022-07-25T00:33:21.475Z,74.48
2022-07-25T00:35:47.929Z,74.68
2022-07-25T00:38:14.417Z,74.54
2022-07-25T00:40:40.979Z,74.85
2022-07-25T00:43:07.533Z,74.03
2022-07-25T00:45:34.000Z,74.90
2022-07-25T00:48:00.476Z,75.49
2022-07-25T00:50:26.979Z,75.53
2022-07-25T00:52:53.652Z,75.17
2022-07-25T00:55:21.492Z,74.49
2022-07-25T00:57:48.025Z,74.26
2022-07-25T01:00:15.539Z,75.53
2022-07-25T01:02:42.435Z,76.67
2022-07-25T01:05:10.280Z,76.33
2022-07-25T01:07:38.425Z,76.32
2022-07-25T01:10:06.595Z,76.67
2022-07-25T01:12:33.049Z,76.42
2022-07-25T01:14:59.515Z,76.38
2022-07-25T01:17:26.050Z,75.83
2022-07-25T01:19:53.654Z,76.10
2022-07-25T01:22:20.113Z,76.90
2022-07-25T01:24:46.585Z,76.70
2022-07-25T01:27:17.435Z,76.41
2022-07-25T01:29:44.117Z,75.54
2022-07-25T01:32:12.309Z,75.48
2022-07-25T01:34:38.730Z,75.94
2022-07-25T01:37:05.207Z,75.97
2022-07-25T01:39:31.724Z,75.72
2022-07-25T01:41:58.209Z,76.30
2022-07-25T01:44:25.048Z,76.65
2022-07-25T01:46:53.019Z,76.89
2022-07-25T01:49:19.559Z,76.60
2022-07-25T01:51:46.130Z,76.74
2022-07-25T01:54:13.075Z,76.94
2022-07-25T01:56:44.616Z,77.18
2022-07-25T01:59:13.514Z,77.58
2022-07-25T02:01:40.002Z,78.16
2022-07-25T02:04:06.883Z,78.05
2022-07-25T02:06:35.209Z,78.43
2022-07-25T02:09:04.230Z,79.17
2022-07-25T02:11:30.682Z,78.55
2022-07-25T02:13:57.180Z,77.90
2022-07-25T02:16:29.048Z,77.48
2022-07-25T02:18:56.275Z,77.02
2022-07-25T02:21:22.685Z,77.18
2022-07-25T02:23:49.212Z,77.65
2022-07-25T02:26:15.699Z,77.30
2022-07-25T02:28:42.165Z,77.49
2022-07-25T02:31:08.994Z,78.14
2022-07-25T02:33:35.756Z,78.07
2022-07-25T02:36:02.280Z,78.51
2022-07-25T02:38:28.811Z,77.84
2022-07-25T02:40:55.375Z,77.41
2022-07-25T02:43:22.457Z,77.70
2022-07-25T02:45:49.080Z,78.00
2022-07-25T02:48:15.573Z,79.17
2022-07-25T02:50:42.102Z,78.30
2022-07-25T02:53:08.553Z,78.08
2022-07-25T02:55:35.004Z,78.90
2022-07-25T02:58:01.612Z,77.43
2022-07-25T03:00:29.124Z,77.88
2022-07-25T03:02:56.230Z,77.76
2022-07-25T03:05:22.750Z,78.01
2022-07-25T03:07:49.243Z,78.59
2022-07-25T03:10:16.091Z,78.80
2022-07-25T03:12:43.399Z,79.13
2022-07-25T03:15:11.353Z,79.14
2022-07-25T03:17:38.227Z,79.08
2022-07-25T03:20:06.729Z,79.06
2022-07-25T03:22:33.305Z,79.30
2022-07-25T03:24:59.738Z,79.57
2022-07-25T03:27:26.375Z,78.94
2022-07-25T03:29:54.300Z,78.33
2022-07-25T03:32:20.857Z,78.69
2022-07-25T03:34:47.762Z,79.10
2022-07-25T03:37:14.376Z,79.11
2022-07-25T03:39:40.870Z,79.45
2022-07-25T03:42:07.408Z,77.96
2022-07-25T03:44:33.898Z,77.47
2022-07-25T03:47:00.345Z,77.88
2022-07-25T03:49:26.817Z,77.78
2022-07-25T03:51:53.276Z,78.17
2022-07-25T03:54:19.972Z,78.02
2022-07-25T03:56:48.815Z,78.02
2022-07-25T03:59:18.003Z,78.42
2022-07-25T04:01:46.324Z,78.29
2022-07-25T04:04:13.011Z,78.44
2022-07-25T04:06:40.340Z,78.81
2022-07-25T04:09:08.041Z,79.55
2022-07-25T04:11:35.819Z,78.83
2022-07-25T04:14:03.011Z,78.14
2022-07-25T04:16:29.852Z,77.65
2022-07-25T04:18:57.265Z,77.67
2022-07-25T04:21:24.729Z,77.42
2022-07-25T04:23:51.410Z,77.16
2022-07-25T04:26:18.529Z,77.41
2022-07-25T04:28:45.109Z,78.26
2022-07-25T04:31:11.605Z,77.31
2022-07-25T04:33:39.545Z,77.30
2022-07-25T04:36:06.996Z,77.11
2022-07-25T04:38:34.388Z,77.02
2022-07-25T04:41:00.859Z,76.85
2022-07-25T04:43:27.349Z,77.17
2022-07-25T04:45:53.982Z,77.44
2022-07-25T04:48:20.503Z,76.14
2022-07-25T04:50:47.004Z,75.79
2022-07-25T04:53:13.444Z,75.09
2022-07-25T04:55:40.713Z,75.19
2022-07-25T04:58:07.269Z,75.07
2022-07-25T05:00:33.827Z,75.00
2022-07-25T05:03:00.510Z,74.61
2022-07-25T05:05:27.379Z,73.90
2022-07-25T05:08:00.265Z,73.34
2022-07-25T05:10:29.321Z,73.63
2022-07-25T05:12:56.339Z,72.89
2022-07-25T05:15:23.307Z,71.93
2022-07-25T05:17:49.782Z,70.65
2022-07-25T05:20:16.336Z,70.68
2022-07-25T05:22:43.215Z,69.84
2022-07-25T05:25:11.945Z,70.63
2022-07-25T05:27:39.339Z,69.44
2022-07-25T05:30:07.669Z,67.25
2022-07-25T05:32:34.120Z,63.51
2022-07-25T05:35:00.938Z,60.56
2022-07-25T05:37:27.495Z,54.29
2022-07-25T05:39:53.943Z,49.86
2022-07-25T05:42:20.432Z,46.02
2022-07-25T05:44:46.951Z,42.43
2022-07-25T05:47:13.527Z,40.37
2022-07-25T05:49:40.148Z,39.34
2022-07-25T05:52:12.523Z,38.85
2022-07-25T05:54:39.699Z,37.72
2022-07-25T05:57:06.220Z,36.58
2022-07-25T05:59:32.760Z,36.09
2022-07-25T06:02:01.780Z,35.12
2022-07-25T06:04:28.635Z,33.48
2022-07-25T06:06:55.764Z,32.61
2022-07-25T06:09:22.700Z,32.21
2022-07-25T06:11:57.731Z,32.49
2022-07-25T06:14:27.369Z,32.70
2022-07-25T06:16:55.350Z,32.42
2022-07-25T06:19:22.072Z,32.55
2022-07-25T06:21:48.656Z,32.17
2022-07-25T06:24:15.257Z,32.09
2022-07-25T06:26:42.750Z,30.61
2022-07-25T06:29:09.386Z,30.75
2022-07-25T06:31:35.905Z,29.13
2022-07-25T06:34:02.659Z,29.30
2022-07-25T06:36:32.110Z,29.07
2022-07-25T06:38:58.951Z,28.49
2022-07-25T06:41:25.379Z,29.00
2022-07-25T06:43:51.870Z,29.27
2022-07-25T06:46:18.352Z,28.70
2022-07-25T06:48:44.912Z,28.12
2022-07-25T06:51:11.390Z,28.83
2022-07-25T06:53:38.008Z,28.63
2022-07-25T06:56:04.808Z,27.63
2022-07-25T06:58:31.260Z,28.01
2022-07-25T07:00:57.890Z,27.02
2022-07-25T07:03:24.446Z,27.23
2022-07-25T07:05:50.944Z,27.24
2022-07-25T07:08:17.519Z,27.17
2022-07-25T07:10:44.115Z,26.61
2022-07-25T07:13:13.237Z,26.42
2022-07-25T07:15:45.051Z,24.88
2022-07-25T07:18:11.589Z,25.42
2022-07-25T07:20:38.168Z,24.34
2022-07-25T07:23:04.701Z,24.90
2022-07-25T07:25:32.535Z,25.48
2022-07-25T07:27:59.552Z,24.70
2022-07-25T07:30:52.209Z,24.07
2022-07-25T07:33:12.879Z,23.46
2022-07-25T07:35:40.249Z,22.78
2022-07-25T07:38:06.820Z,26.05
2022-07-25T07:40:33.251Z,24.26
2022-07-25T07:43:02.437Z,24.38
2022-07-25T07:45:30.318Z,24.05
2022-07-25T07:47:57.241Z,25.60
2022-07-25T07:50:25.980Z,25.20
2022-07-25T07:52:54.484Z,24.94
2022-07-25T07:55:40.617Z,23.89
2022-07-25T07:58:07.317Z,24.49
2022-07-25T08:00:39.258Z,25.01
2022-07-25T08:03:08.694Z,25.43
2022-07-25T08:05:45.319Z,25.67
2022-07-25T08:08:14.748Z,26.45
2022-07-25T08:10:46.693Z,26.02
2022-07-25T08:13:21.399Z,25.14
2022-07-25T08:15:50.534Z,26.54
2022-07-25T08:18:18.269Z,27.07
2022-07-25T08:20:48.704Z,26.70
2022-07-25T08:23:15.696Z,27.42
2022-07-25T08:25:43.235Z,27.06
2022-07-25T08:28:10.514Z,27.96
2022-07-25T08:30:38.675Z,26.91
2022-07-25T08:33:08.072Z,26.73
2022-07-25T08:35:34.760Z,29.30
2022-07-25T08:38:02.372Z,30.22
2022-07-25T08:40:31.112Z,27.95
2022-07-25T08:42:58.489Z,31.49
2022-07-25T08:45:26.679Z,31.70
2022-07-25T08:47:54.645Z,28.71
2022-07-25T08:50:27.716Z,28.91
2022-07-25T08:53:10.422Z,29.48
2022-07-25T08:55:43.603Z,26.34
2022-07-25T08:58:11.112Z,28.29
2022-07-25T09:00:37.829Z,27.97
2022-07-25T09:03:06.513Z,27.17
2022-07-25T09:05:33.702Z,27.03
2022-07-25T09:08:15.060Z,27.24
2022-07-25T09:10:54.565Z,27.61
2022-07-25T09:13:23.510Z,27.72
2022-07-25T09:15:56.634Z,27.30
2022-07-25T09:18:24.966Z,25.97
2022-07-25T09:20:53.221Z,27.70
2022-07-25T09:23:34.645Z,27.91
2022-07-25T09:26:02.506Z,28.52
2022-07-25T09:28:29.754Z,28.60
2022-07-25T09:30:59.550Z,27.29
2022-07-25T09:33:27.578Z,25.17
2022-07-25T09:35:55.618Z,26.20
2022-07-25T09:38:23.783Z,26.33
2022-07-25T09:41:02.143Z,26.70
2022-07-25T09:43:37.181Z,25.26
2022-07-25T09:46:03.842Z,27.67
2022-07-25T09:48:30.957Z,28.07
2022-07-25T09:50:57.524Z,27.91
2022-07-25T09:53:24.466Z,28.24
2022-07-25T09:55:53.210Z,27.94
2022-07-25T09:58:19.762Z,27.88
2022-07-25T10:00:46.464Z,25.57
2022-07-25T10:03:27.399Z,26.16
2022-07-25T10:06:04.899Z,25.48
2022-07-25T10:08:37.181Z,25.99
2022-07-25T10:11:06.557Z,26.27
2022-07-25T10:13:34.982Z,26.51
2022-07-25T10:16:02.072Z,27.09
2022-07-25T10:18:30.442Z,28.87
2022-07-25T10:21:26.121Z,28.34
2022-07-25T10:24:06.222Z,27.89
2022-07-25T10:26:35.379Z,26.63
2022-07-25T10:29:08.468Z,27.74
2022-07-25T10:31:38.479Z,26.63
2022-07-25T10:34:13.660Z,26.15
2022-07-25T10:36:49.142Z,26.08
2022-07-25T10:39:18.339Z,25.02
2022-07-25T10:42:02.815Z,24.56
2022-07-25T10:44:44.211Z,24.70
2022-07-25T10:47:12.945Z,23.00
2022-07-25T10:49:55.129Z,23.52
2022-07-25T10:52:30.262Z,24.43
2022-07-25T10:54:59.913Z,25.78
2022-07-25T10:57:31.750Z,25.39
2022-07-25T11:00:09.035Z,24.60
2022-07-25T11:02:36.033Z,24.82
2022-07-25T11:05:04.154Z,25.36
2022-07-25T11:07:36.128Z,25.69
2022-07-25T11:10:05.840Z,26.01
2022-07-25T11:12:32.617Z,26.22
2022-07-25T11:15:07.468Z,26.01
2022-07-25T11:17:34.455Z,24.91
2022-07-25T11:20:09.678Z,25.84
2022-07-25T11:22:36.606Z,26.27
2022-07-25T11:25:11.249Z,26.21
2022-07-25T11:27:37.862Z,28.03
2022-07-25T11:30:08.368Z,27.96
2022-07-25T11:32:46.266Z,27.17
2022-07-25T11:35:14.472Z,26.68
2022-07-25T11:37:44.075Z,25.95
2022-07-25T11:40:10.980Z,26.07
2022-07-25T11:42:42.270Z,25.81
2022-07-25T11:45:30.771Z,26.03
2022-07-25T11:48:03.632Z,26.85
2022-07-25T11:50:31.597Z,27.71
2022-07-25T11:53:03.003Z,27.27
2022-07-25T11:55:31.842Z,25.87
2022-07-25T11:58:01.925Z,25.09
2022-07-25T12:00:29.752Z,25.04
2022-07-25T12:03:08.355Z,25.05
2022-07-25T12:05:35.139Z,25.11
2022-07-25T12:08:12.325Z,24.15
2022-07-25T12:10:39.801Z,25.07
2022-07-25T12:13:08.675Z,25.44
2022-07-25T12:15:40.145Z,26.45
2022-07-25T12:18:09.414Z,27.28
2022-07-25T12:20:45.917Z,26.81
2022-07-25T12:23:13.579Z,26.35
2022-07-25T12:25:43.312Z,25.80
2022-07-25T12:28:11.124Z,25.58
2022-07-25T12:30:39.129Z,25.04
2022-07-25T12:33:06.338Z,25.92
2022-07-25T12:35:33.506Z,26.16
2022-07-25T12:38:00.152Z,26.01
2022-07-25T12:40:26.876Z,27.82
2022-07-25T12:42:54.473Z,28.10
2022-07-25T12:45:21.782Z,28.85
2022-07-25T12:47:48.611Z,28.91
2022-07-25T12:50:16.659Z,31.87
2022-07-25T12:52:44.481Z,31.12
2022-07-25T12:55:18.160Z,30.61
2022-07-25T12:57:45.900Z,30.10
2022-07-25T13:00:16.113Z,31.98
2022-07-25T13:02:43.388Z,32.45
2022-07-25T13:05:11.178Z,32.40
2022-07-25T13:07:38.207Z,32.64
2022-07-25T13:10:05.709Z,33.93
2022-07-25T13:12:32.442Z,34.57
2022-07-25T13:14:58.948Z,34.80
2022-07-25T13:17:27.669Z,34.38
2022-07-25T13:19:55.618Z,34.25
2022-07-25T13:22:22.147Z,34.21
2022-07-25T13:24:48.725Z,32.17
2022-07-25T13:27:17.464Z,30.67
2022-07-25T13:29:43.956Z,27.42
2022-07-25T13:32:11.913Z,26.47
2022-07-25T13:34:38.557Z,26.21
2022-07-25T13:37:05.525Z,23.22
2022-07-25T13:39:32.129Z,22.98
2022-07-25T13:41:58.624Z,22.57
2022-07-25T13:44:25.113Z,21.98
2022-07-25T13:46:51.613Z,25.27
2022-07-25T13:49:18.401Z,23.41
2022-07-25T13:51:45.563Z,24.84
2022-07-25T13:54:12.981Z,23.14
2022-07-25T13:56:41.403Z,21.71
2022-07-25T13:59:08.720Z,21.05
2022-07-25T14:01:38.783Z,20.67
2022-07-25T14:04:05.450Z,21.05
2022-07-25T14:06:31.945Z,21.70
2022-07-25T14:08:58.673Z,20.45
2022-07-25T14:11:30.358Z,20.13
2022-07-25T14:13:57.851Z,19.02
2022-07-25T14:16:24.497Z,19.18
2022-07-25T14:18:51.022Z,19.06
2022-07-25T14:21:17.693Z,18.13
2022-07-25T14:23:44.168Z,21.26
2022-07-25T14:26:10.656Z,20.95
2022-07-25T14:28:37.458Z,21.15
2022-07-25T14:31:04.116Z,22.89
2022-07-25T14:33:30.694Z,23.35
2022-07-25T14:35:57.172Z,24.49
2022-07-25T14:38:23.680Z,25.92
2022-07-25T14:40:51.389Z,26.10
2022-07-25T14:43:17.972Z,26.47
2022-07-25T14:45:44.594Z,28.60
2022-07-25T14:48:11.166Z,26.99
2022-07-25T14:50:37.658Z,29.83
2022-07-25T14:53:04.131Z,29.45
2022-07-25T14:55:30.814Z,29.00
2022-07-25T14:58:02.309Z,28.78
2022-07-25T15:00:33.906Z,26.47
2022-07-25T15:03:00.639Z,24.80
2022-07-25T15:05:27.168Z,28.68
2022-07-25T15:07:53.619Z,29.94
2022-07-25T15:10:20.142Z,29.21
2022-07-25T15:12:46.720Z,28.63
2022-07-25T15:15:13.902Z,28.16
2022-07-25T15:17:40.405Z,27.87
2022-07-25T15:20:07.716Z,29.60
2022-07-25T15:22:34.225Z,30.21
2022-07-25T15:27:47.503Z,30.13
2022-07-25T15:30:14.033Z,29.71
2022-07-25T15:32:40.645Z,28.74
2022-07-25T15:35:07.556Z,28.97
2022-07-25T15:37:34.019Z,28.88
2022-07-25T15:40:00.698Z,30.42
2022-07-25T15:42:29.178Z,30.62
2022-07-25T15:45:22.352Z,30.59
2022-07-25T15:47:45.175Z,30.83
2022-07-25T15:50:15.497Z,31.33
2022-07-25T15:52:42.018Z,30.47
2022-07-25T15:55:08.929Z,29.29
2022-07-25T15:57:35.510Z,30.13
2022-07-25T16:00:05.888Z,30.25
2022-07-25T16:02:32.359Z,30.84
2022-07-25T16:04:58.863Z,31.36
2022-07-25T16:07:25.473Z,31.44
2022-07-25T16:09:53.084Z,32.47
2022-07-25T16:12:24.244Z,33.43
2022-07-25T16:14:54.501Z,33.26
2022-07-25T16:17:21.011Z,33.65
2022-07-25T16:19:47.649Z,33.54
2022-07-25T16:22:14.168Z,34.11
2022-07-25T16:24:41.100Z,34.17
2022-07-25T16:27:08.393Z,34.51
2022-07-25T16:29:34.881Z,35.45
2022-07-25T16:32:01.448Z,36.92
2022-07-25T16:34:29.288Z,36.82
2022-07-25T16:36:55.962Z,36.96
2022-07-25T16:39:23.110Z,37.64
2022-07-25T16:41:49.679Z,37.58
2022-07-25T16:44:16.590Z,38.74
2022-07-25T16:46:43.174Z,38.07
2022-07-25T16:49:10.317Z,37.89
2022-07-25T16:51:37.488Z,38.52
2022-07-25T16:54:04.102Z,38.34
2022-07-25T16:56:30.746Z,38.73
2022-07-25T16:58:57.714Z,39.68
2022-07-25T17:01:26.488Z,40.25
2022-07-25T17:03:53.351Z,40.75
2022-07-25T17:06:20.021Z,40.87
2022-07-25T17:08:46.794Z,41.15
2022-07-25T17:11:14.330Z,41.47
2022-07-25T17:13:40.878Z,41.79
2022-07-25T17:16:09.663Z,42.40
2022-07-25T17:18:37.334Z,41.77
2022-07-25T17:21:05.553Z,41.44
2022-07-25T17:23:32.719Z,42.89
2022-07-25T17:25:59.708Z,43.43
2022-07-25T17:28:26.199Z,43.11
2022-07-25T17:30:52.922Z,42.79
2022-07-25T17:33:19.474Z,42.83
2022-07-25T17:35:45.995Z,43.19
2022-07-25T17:38:12.769Z,43.65
2022-07-25T17:40:41.058Z,43.70
2022-07-25T17:43:07.522Z,43.28
2022-07-25T17:45:34.300Z,43.94
2022-07-25T17:48:00.867Z,44.30
2022-07-25T17:50:29.553Z,44.72
2022-07-25T17:53:00.112Z,44.56
2022-07-25T17:55:28.590Z,45.13
2022-07-25T17:57:55.613Z,44.95
2022-07-25T18:00:23.448Z,44.96
2022-07-25T18:02:50.595Z,45.00
2022-07-25T18:05:17.647Z,45.50
2022-07-25T18:07:45.654Z,45.78
2022-07-25T18:10:13.255Z,45.83
2022-07-25T18:12:39.959Z,45.77
2022-07-25T18:15:07.591Z,45.93
2022-07-25T18:17:34.576Z,45.83
2022-07-25T18:20:01.185Z,46.61
2022-07-25T18:22:27.678Z,47.67
2022-07-25T18:24:54.093Z,47.61
2022-07-25T18:27:20.649Z,47.23
2022-07-25T18:29:47.227Z,47.50
2022-07-25T18:32:13.671Z,48.08
2022-07-25T18:34:40.132Z,48.37
2022-07-25T18:37:06.685Z,48.25
2022-07-25T18:39:33.306Z,48.27
2022-07-25T18:41:59.857Z,48.82
2022-07-25T18:44:26.294Z,49.13
2022-07-25T18:46:52.817Z,48.93
2022-07-25T18:49:19.420Z,49.45
2022-07-25T18:51:46.026Z,49.25
2022-07-25T18:54:12.608Z,50.17
2022-07-25T18:56:39.121Z,50.42
2022-07-25T18:59:06.184Z,49.93
2022-07-25T19:01:34.562Z,50.25
2022-07-25T19:04:01.158Z,50.54
2022-07-25T19:06:27.675Z,51.00
2022-07-25T19:08:54.239Z,51.12
2022-07-25T19:11:20.827Z,50.99
2022-07-25T19:13:50.034Z,51.32
2022-07-25T19:16:18.151Z,51.54
2022-07-25T19:18:44.705Z,51.74
2022-07-25T19:21:11.191Z,52.02
2022-07-25T19:23:37.744Z,52.17
2022-07-25T19:26:04.282Z,52.31
2022-07-25T19:28:31.039Z,51.92
2022-07-25T19:30:57.699Z,52.55
2022-07-25T19:33:24.430Z,52.71
2022-07-25T19:35:51.282Z,52.87
2022-07-25T19:38:19.383Z,53.60
2022-07-25T19:40:46.256Z,53.92
2022-07-25T19:43:12.773Z,53.90
2022-07-25T19:45:39.425Z,53.61
2022-07-25T19:48:07.039Z,53.50
2022-07-25T19:50:34.094Z,53.63
2022-07-25T19:53:01.350Z,53.67
2022-07-25T19:55:28.370Z,53.81
2022-07-25T19:57:55.183Z,53.72
2022-07-25T20:00:21.816Z,53.97
2022-07-25T20:02:48.476Z,54.09
2022-07-25T20:05:15.082Z,53.98
2022-07-25T20:07:41.627Z,53.90
2022-07-25T20:10:08.933Z,53.49
2022-07-25T20:12:35.496Z,53.70
2022-07-25T20:15:02.476Z,53.10
2022-07-25T20:17:29.030Z,53.48
2022-07-25T20:19:55.516Z,53.28
2022-07-25T20:22:21.991Z,53.52
2022-07-25T20:24:48.426Z,53.28
2022-07-25T20:27:15.117Z,53.64
2022-07-25T20:29:41.613Z,53.65
2022-07-25T20:32:08.499Z,53.87
2022-07-25T20:34:35.061Z,53.65
2022-07-25T20:37:04.197Z,53.91
2022-07-25T20:39:30.739Z,53.60
2022-07-25T20:41:57.416Z,53.68
2022-07-25T20:44:24.013Z,53.52
2022-07-25T20:46:51.503Z,53.99
2022-07-25T20:49:18.094Z,54.06
2022-07-25T20:51:44.653Z,54.04
2022-07-25T20:54:11.309Z,53.83
2022-07-25T20:56:37.814Z,54.13
2022-07-25T20:59:04.504Z,54.38
2022-07-25T21:01:31.382Z,54.59
2022-07-25T21:03:57.956Z,54.74
2022-07-25T21:06:27.080Z,54.84
2022-07-25T21:08:54.096Z,55.34
2022-07-25T21:11:20.929Z,55.23
2022-07-25T21:13:47.583Z,55.18
2022-07-25T21:16:15.195Z,56.99
2022-07-25T21:18:41.968Z,56.98
2022-07-25T21:21:12.099Z,60.37
2022-07-25T21:23:38.893Z,61.11
2022-07-25T21:26:05.777Z,59.14
2022-07-25T21:28:32.364Z,59.23
2022-07-25T21:30:58.951Z,58.87
2022-07-25T21:33:25.422Z,58.70
2022-07-25T21:35:53.640Z,58.06
2022-07-25T21:38:26.462Z,58.03
2022-07-25T21:40:55.906Z,57.81
2022-07-25T21:43:22.595Z,58.59
2022-07-25T21:45:49.132Z,57.00
2022-07-25T21:48:15.715Z,56.38
2022-07-25T21:50:48.383Z,55.31
2022-07-25T21:53:16.086Z,54.66
2022-07-25T21:55:42.558Z,54.74
2022-07-25T21:58:09.115Z,54.35
2022-07-25T22:00:41.601Z,54.85
2022-07-25T22:03:12.405Z,54.90
2022-07-25T22:05:39.274Z,55.30
2022-07-25T22:08:05.878Z,55.63
2022-07-25T22:10:33.519Z,56.45
2022-07-25T22:13:00.123Z,57.44
2022-07-25T22:15:26.731Z,58.51
2022-07-25T22:17:54.184Z,59.96
2022-07-25T22:20:20.847Z,60.90
2022-07-25T22:22:48.295Z,60.89
2022-07-25T22:25:15.521Z,60.57
2022-07-25T22:27:42.068Z,60.37
2022-07-25T22:30:12.252Z,60.37
2022-07-25T22:32:41.629Z,60.22
2022-07-25T22:35:08.788Z,61.01
2022-07-25T22:37:35.694Z,61.35
2022-07-25T22:40:03.914Z,61.88
2022-07-25T22:42:30.364Z,61.08
2022-07-25T22:44:56.940Z,61.14
2022-07-25T22:47:23.486Z,59.75
2022-07-25T22:49:49.939Z,58.74
2022-07-25T22:52:16.454Z,59.17
2022-07-25T22:54:43.423Z,59.71
2022-07-25T22:57:09.907Z,60.09
2022-07-25T22:59:36.398Z,60.27
2022-07-25T23:02:03.198Z,61.08
2022-07-25T23:04:29.921Z,61.53
2022-07-25T23:06:56.484Z,61.77
2022-07-25T23:09:23.487Z,61.79
2022-07-25T23:11:50.711Z,62.39
2022-07-25T23:14:17.407Z,62.97
2022-07-25T23:16:43.981Z,64.06
2022-07-25T23:19:11.045Z,63.79
2022-07-25T23:21:37.705Z,63.51
2022-07-25T23:24:05.969Z,63.36
2022-07-25T23:26:32.548Z,63.54
2022-07-25T23:28:58.996Z,64.34
2022-07-25T23:31:25.514Z,64.60
2022-07-25T23:33:52.035Z,65.01
2022-07-25T23:36:18.459Z,65.93
2022-07-25T23:38:44.898Z,66.43
2022-07-25T23:41:11.298Z,66.78
2022-07-25T23:43:59.120Z,66.82
2022-07-25T23:46:29.251Z,67.33
2022-07-25T23:48:58.856Z,67.66
2022-07-25T23:51:25.906Z,67.92
2022-07-25T23:53:52.381Z,68.40
2022-07-25T23:56:20.953Z,68.55
2022-07-25T23:58:49.896Z,69.58
